Time;durP1;ratioP1;P1;durP2;ratioP2;P2;SDS_P1;SDS_P2;PMS_P1;PMS_P2;Temp;Humidity;BMP_temperature;BMP_pressure;BME280_temperature;BME280_humidity;BME280_pressure;Samples;Min_cycle;Max_cycle;Signal;HPM_P1;HPM_P2
2022/01/01 00:02:06;;;;;;;27.85;15.07;;;;;;;;;;5072514;28;20032;-70
2022/01/01 00:04:31;;;;;;;30.23;15.43;;;;;;;;;;5090712;28;20022;-72
2022/01/01 00:06:57;;;;;;;29.75;15.30;;;;;;;;;;5090645;28;20027;-70
2022/01/01 00:09:23;;;;;;;28.98;15.93;;;;;;;;;;5072573;28;20024;-72
2022/01/01 00:11:49;;;;;;;25.98;14.70;;;;;;;;;;5090101;28;20028;-69
2022/01/01 00:14:15;;;;;;;31.58;16.80;;;;;;;;;;5072673;28;20048;-72
2022/01/01 00:16:41;;;;;;;28.20;15.00;;;;;;;;;;5090813;28;20473;-72
2022/01/01 00:19:10;;;;;;;27.83;16.00;;;;;;;;;;5072339;28;20031;-72
2022/01/01 00:21:36;;;;;;;28.13;16.08;;;;;;;;;;5072161;28;20077;-72
2022/01/01 00:24:02;;;;;;;29.55;15.90;;;;;;;;;;5093166;28;20028;-70
2022/01/01 00:26:28;;;;;;;29.80;15.02;;;;;;;;;;5076197;28;20092;-71
2022/01/01 00:28:54;;;;;;;30.55;16.25;;;;;;;;;;5076362;28;20479;-72
2022/01/01 00:31:20;;;;;;;26.60;15.35;;;;;;;;;;5076735;28;20024;-71
2022/01/01 00:33:46;;;;;;;32.22;14.65;;;;;;;;;;5093970;28;20027;-72
2022/01/01 00:36:12;;;;;;;29.83;14.40;;;;;;;;;;5076434;28;20024;-71
2022/01/01 00:38:38;;;;;;;31.45;14.25;;;;;;;;;;5076131;28;20426;-72
2022/01/01 00:41:07;;;;;;;32.50;16.00;;;;;;;;;;5076163;28;20046;-71
2022/01/01 00:43:33;;;;;;;27.98;14.25;;;;;;;;;;5093632;28;20043;-72
2022/01/01 00:45:59;;;;;;;26.88;15.07;;;;;;;;;;5076003;28;20047;-72
2022/01/01 00:48:28;;;;;;;27.85;14.60;;;;;;;;;;5094072;28;20031;-71
2022/01/01 00:50:54;;;;;;;34.05;14.63;;;;;;;;;;5094303;28;20307;-71
2022/01/01 00:53:20;;;;;;;29.02;14.38;;;;;;;;;;5075120;28;20035;-71
2022/01/01 00:55:46;;;;;;;28.63;14.68;;;;;;;;;;5075546;28;20024;-71
2022/01/01 00:58:12;;;;;;;26.27;12.52;;;;;;;;;;5094421;28;20166;-71
2022/01/01 01:00:38;;;;;;;28.65;14.25;;;;;;;;;;5095313;28;20384;-73
2022/01/01 01:03:10;;;;;;;28.98;13.85;;;;;;;;;;5076453;28;20074;-71
2022/01/01 01:05:38;;;;;;;27.05;13.63;;;;;;;;;;5095796;28;20089;-72
2022/01/01 01:08:04;;;;;;;30.20;14.32;;;;;;;;;;5095761;28;20035;-71
2022/01/01 01:10:30;;;;;;;26.27;14.50;;;;;;;;;;5048663;23;20501;-69
2022/01/01 01:12:56;;;;;;;33.55;14.48;;;;;;;;;;5032608;28;20026;-69
2022/01/01 01:15:24;;;;;;;26.05;12.77;;;;;;;;;;5033031;28;20035;-69
2022/01/01 01:17:51;;;;;;;25.93;13.27;;;;;;;;;;5035444;28;20531;-69
2022/01/01 01:20:17;;;;;;;24.80;13.38;;;;;;;;;;5032998;28;20025;-68
2022/01/01 01:22:43;;;;;;;26.90;12.80;;;;;;;;;;5015935;28;20021;-69
2022/01/01 01:25:10;;;;;;;25.33;12.60;;;;;;;;;;5016720;28;20078;-68
2022/01/01 01:27:36;;;;;;;28.80;12.00;;;;;;;;;;5016308;28;20036;-68
2022/01/01 01:30:06;;;;;;;27.50;13.73;;;;;;;;;;5034170;28;20120;-68
2022/01/01 01:32:33;;;;;;;34.38;14.55;;;;;;;;;;5033720;28;20477;-70
2022/01/01 01:34:59;;;;;;;32.67;15.23;;;;;;;;;;5016151;28;20021;-70
2022/01/01 01:37:25;;;;;;;24.80;12.68;;;;;;;;;;5034289;28;20021;-68
2022/01/01 01:39:51;;;;;;;29.50;14.63;;;;;;;;;;5016553;28;20112;-69
2022/01/01 01:42:17;;;;;;;27.65;14.35;;;;;;;;;;5016072;28;20018;-69
2022/01/01 01:44:47;;;;;;;27.33;15.43;;;;;;;;;;5034461;28;20032;-69
2022/01/01 01:47:17;;;;;;;30.95;15.57;;;;;;;;;;5016294;28;20037;-69
2022/01/01 01:49:46;;;;;;;26.15;13.80;;;;;;;;;;5034232;28;20474;-69
2022/01/01 01:52:12;;;;;;;35.78;15.48;;;;;;;;;;5032956;28;20021;-69
2022/01/01 01:54:39;;;;;;;27.20;14.25;;;;;;;;;;5033651;28;20112;-69
2022/01/01 01:57:05;;;;;;;28.77;12.90;;;;;;;;;;5033897;28;20060;-69
2022/01/01 01:59:31;;;;;;;28.63;14.05;;;;;;;;;;5015860;28;20035;-69
2022/01/01 02:01:57;;;;;;;27.75;13.55;;;;;;;;;;5015121;28;20032;-68
2022/01/01 02:04:23;;;;;;;39.55;16.40;;;;;;;;;;5033279;28;20025;-68
2022/01/01 02:06:49;;;;;;;33.63;15.45;;;;;;;;;;5015470;28;20477;-70
2022/01/01 02:09:15;;;;;;;28.70;15.00;;;;;;;;;;5033032;28;20500;-68
2022/01/01 02:11:42;;;;;;;31.60;14.65;;;;;;;;;;5014853;28;20055;-68
2022/01/01 02:17:08;;;;;;;30.65;14.65;;;;;;;;;;4992352;28;20037;-69
2022/01/01 02:19:51;;;;;;;27.40;14.75;;;;;;;;;;5015466;28;20504;-70
2022/01/01 02:22:18;;;;;;;31.00;15.07;;;;;;;;;;5032392;28;20029;-68
2022/01/01 02:24:44;;;;;;;32.65;15.30;;;;;;;;;;5015434;28;20052;-69
2022/01/01 02:27:11;;;;;;;32.95;15.02;;;;;;;;;;5032975;28;20072;-69
2022/01/01 02:29:37;;;;;;;32.42;14.38;;;;;;;;;;5015387;28;20034;-69
2022/01/01 02:32:04;;;;;;;39.38;17.48;;;;;;;;;;5014817;28;20520;-68
2022/01/01 02:34:30;;;;;;;32.13;15.73;;;;;;;;;;5032596;28;20025;-69
2022/01/01 02:36:56;;;;;;;32.58;14.57;;;;;;;;;;5032976;28;20096;-69
2022/01/01 02:39:23;;;;;;;30.65;15.15;;;;;;;;;;5015031;28;20040;-70
2022/01/01 02:41:51;;;;;;;35.83;15.93;;;;;;;;;;5032092;28;20537;-68
2022/01/01 02:44:20;;;;;;;33.72;15.07;;;;;;;;;;5015041;28;20026;-69
2022/01/01 02:46:46;;;;;;;30.80;15.48;;;;;;;;;;5014370;28;20037;-69
2022/01/01 02:49:12;;;;;;;29.80;15.02;;;;;;;;;;5014807;28;20037;-69
2022/01/01 02:51:38;;;;;;;31.58;15.70;;;;;;;;;;5032084;28;20025;-68
2022/01/01 02:54:04;;;;;;;32.35;15.48;;;;;;;;;;5014484;28;20021;-69
2022/01/01 02:56:30;;;;;;;30.08;14.43;;;;;;;;;;5032380;28;20025;-69
2022/01/01 02:58:56;;;;;;;34.15;15.43;;;;;;;;;;5032421;28;20029;-69
2022/01/01 03:01:22;;;;;;;31.80;15.07;;;;;;;;;;5032295;28;20032;-69
2022/01/01 03:03:48;;;;;;;34.50;16.42;;;;;;;;;;5013988;28;20018;-69
2022/01/01 03:06:19;;;;;;;36.13;15.15;;;;;;;;;;5032162;28;20024;-68
2022/01/01 03:08:46;;;;;;;32.90;15.35;;;;;;;;;;5032266;28;20113;-69
2022/01/01 03:11:12;;;;;;;35.92;16.52;;;;;;;;;;5014829;28;20056;-69
2022/01/01 03:13:38;;;;;;;29.02;15.38;;;;;;;;;;5031577;28;20021;-69
2022/01/01 03:16:04;;;;;;;30.02;14.15;;;;;;;;;;5033177;28;20033;-70
2022/01/01 03:18:30;;;;;;;34.50;14.75;;;;;;;;;;5032155;28;20083;-70
2022/01/01 03:20:56;;;;;;;33.97;15.70;;;;;;;;;;5032447;28;20029;-69
2022/01/01 03:23:22;;;;;;;30.42;15.75;;;;;;;;;;5031640;28;20386;-70
2022/01/01 03:25:48;;;;;;;34.10;14.93;;;;;;;;;;5014894;28;20109;-70
2022/01/01 03:28:14;;;;;;;32.10;17.08;;;;;;;;;;5032030;28;20072;-70
2022/01/01 03:30:40;;;;;;;35.42;15.25;;;;;;;;;;5031980;28;20029;-70
2022/01/01 03:33:06;;;;;;;31.80;15.20;;;;;;;;;;5013666;28;20053;-69
2022/01/01 03:35:32;;;;;;;38.35;17.15;;;;;;;;;;5031930;28;20065;-70
2022/01/01 03:37:58;;;;;;;29.55;14.13;;;;;;;;;;5032078;28;20489;-70
2022/01/01 03:40:24;;;;;;;33.28;14.68;;;;;;;;;;5014377;28;20120;-69
2022/01/01 03:42:50;;;;;;;33.97;15.15;;;;;;;;;;5013502;28;20129;-70
2022/01/01 03:45:16;;;;;;;29.92;12.93;;;;;;;;;;5014424;28;20036;-70
2022/01/01 03:47:42;;;;;;;34.05;14.50;;;;;;;;;;5014566;28;20331;-69
2022/01/01 03:50:08;;;;;;;31.38;14.43;;;;;;;;;;5014751;28;20025;-69
2022/01/01 03:52:34;;;;;;;34.50;14.13;;;;;;;;;;5013843;28;20028;-70
2022/01/01 03:55:00;;;;;;;28.63;14.13;;;;;;;;;;5014353;28;20037;-72
2022/01/01 03:57:26;;;;;;;33.95;14.23;;;;;;;;;;5015876;28;20096;-71
2022/01/01 03:59:52;;;;;;;32.45;16.00;;;;;;;;;;5018405;28;20501;-71
2022/01/01 04:02:18;;;;;;;33.63;15.70;;;;;;;;;;5035153;28;20028;-70
2022/01/01 04:04:44;;;;;;;29.20;14.55;;;;;;;;;;5035990;28;20390;-71
2022/01/01 04:07:10;;;;;;;31.85;14.48;;;;;;;;;;5017961;28;20126;-71
2022/01/01 04:09:36;;;;;;;28.90;13.60;;;;;;;;;;5035561;28;20036;-70
2022/01/01 04:12:02;;;;;;;37.75;15.93;;;;;;;;;;5017457;28;20028;-71
2022/01/01 04:14:28;;;;;;;30.20;14.68;;;;;;;;;;5017879;28;20083;-71
2022/01/01 04:16:55;;;;;;;32.97;14.95;;;;;;;;;;5017878;28;20038;-71
2022/01/01 04:19:28;;;;;;;33.80;14.43;;;;;;;;;;5018395;28;20103;-72
2022/01/01 04:21:54;;;;;;;35.28;17.45;;;;;;;;;;5017367;28;20025;-70
2022/01/01 04:24:20;;;;;;;32.88;16.20;;;;;;;;;;5017791;28;20117;-70
2022/01/01 04:26:46;;;;;;;32.10;15.20;;;;;;;;;;5035522;28;20028;-71
2022/01/01 04:29:12;;;;;;;36.95;16.60;;;;;;;;;;5017738;28;20116;-70
2022/01/01 04:31:38;;;;;;;33.38;16.70;;;;;;;;;;5017021;28;20057;-70
2022/01/01 04:34:03;;;;;;;63.10;41.35;;;;;;;;;;5017727;28;20543;-71
2022/01/01 04:36:30;;;;;;;40.08;23.35;;;;;;;;;;5035349;28;20028;-71
2022/01/01 04:38:56;;;;;;;31.85;16.50;;;;;;;;;;5017416;28;20021;-73
2022/01/01 04:41:22;;;;;;;36.42;16.13;;;;;;;;;;5022264;28;20405;-72
2022/01/01 04:43:48;;;;;;;32.33;15.98;;;;;;;;;;5014641;28;20030;-73
2022/01/01 04:46:15;;;;;;;31.80;14.35;;;;;;;;;;5015195;28;20053;-72
2022/01/01 04:48:40;;;;;;;31.77;14.18;;;;;;;;;;4997614;28;20124;-73
2022/01/01 04:51:07;;;;;;;29.60;15.85;;;;;;;;;;4998121;28;20548;-72
2022/01/01 04:53:34;;;;;;;30.52;15.07;;;;;;;;;;5013807;28;20029;-73
2022/01/01 04:56:04;;;;;;;36.03;16.38;;;;;;;;;;5035218;28;20029;-73
2022/01/01 04:58:30;;;;;;;35.53;15.95;;;;;;;;;;5034907;28;20076;-72
2022/01/01 05:00:56;;;;;;;30.88;15.23;;;;;;;;;;5034073;28;20052;-72
2022/01/01 05:03:22;;;;;;;31.92;15.20;;;;;;;;;;5034796;28;20489;-72
2022/01/01 05:05:48;;;;;;;32.42;15.80;;;;;;;;;;5035147;28;20037;-72
2022/01/01 05:08:14;;;;;;;32.15;14.57;;;;;;;;;;5017706;28;20029;-73
2022/01/01 05:10:40;;;;;;;28.27;13.60;;;;;;;;;;5036038;28;20083;-73
2022/01/01 05:13:06;;;;;;;37.67;15.48;;;;;;;;;;5017635;28;20025;-73
2022/01/01 05:15:32;;;;;;;29.52;14.43;;;;;;;;;;5036400;28;20037;-72
2022/01/01 05:17:58;;;;;;;28.95;13.05;;;;;;;;;;5018168;28;20022;-73
2022/01/01 05:20:24;;;;;;;29.23;13.73;;;;;;;;;;5034635;28;20470;-73
2022/01/01 05:22:50;;;;;;;30.67;15.38;;;;;;;;;;5016523;28;20375;-72
2022/01/01 05:25:16;;;;;;;31.35;15.48;;;;;;;;;;5034615;28;20026;-72
2022/01/01 05:27:43;;;;;;;33.30;15.23;;;;;;;;;;5016979;28;20579;-72
2022/01/01 05:30:11;;;;;;;29.83;14.65;;;;;;;;;;5034492;28;20026;-72
2022/01/01 05:32:37;;;;;;;35.53;14.52;;;;;;;;;;5016219;28;20048;-72
2022/01/01 05:35:03;;;;;;;34.40;15.32;;;;;;;;;;5016790;28;20469;-72
2022/01/01 05:37:29;;;;;;;31.50;15.80;;;;;;;;;;5034600;28;20104;-72
2022/01/01 05:39:55;;;;;;;36.33;17.02;;;;;;;;;;5016416;28;20053;-73
2022/01/01 05:42:24;;;;;;;31.75;14.70;;;;;;;;;;5033799;28;20029;-72
2022/01/01 05:44:50;;;;;;;30.50;14.30;;;;;;;;;;5034294;28;20029;-73
2022/01/01 05:47:17;;;;;;;31.20;16.15;;;;;;;;;;5034209;28;20025;-73
2022/01/01 05:49:43;;;;;;;29.58;14.27;;;;;;;;;;5033980;28;20026;-72
2022/01/01 05:52:09;;;;;;;33.50;14.93;;;;;;;;;;5033522;28;20032;-72
2022/01/01 05:54:35;;;;;;;27.33;13.43;;;;;;;;;;5016461;28;20389;-72
2022/01/01 05:57:02;;;;;;;30.52;15.38;;;;;;;;;;5016678;28;20025;-72
2022/01/01 05:59:28;;;;;;;32.95;14.73;;;;;;;;;;5033864;28;20022;-71
2022/01/01 06:01:54;;;;;;;33.20;15.20;;;;;;;;;;5033608;28;20029;-72
2022/01/01 06:04:20;;;;;;;38.03;16.30;;;;;;;;;;5016223;28;20511;-72
2022/01/01 06:06:46;;;;;;;34.70;14.77;;;;;;;;;;5016098;28;20033;-72
2022/01/01 06:09:12;;;;;;;28.98;14.23;;;;;;;;;;5015832;28;20529;-72
2022/01/01 06:11:38;;;;;;;28.80;13.48;;;;;;;;;;5033088;28;20029;-72
2022/01/01 06:14:04;;;;;;;31.55;13.40;;;;;;;;;;5015721;28;20501;-73
2022/01/01 06:16:30;;;;;;;27.52;12.80;;;;;;;;;;5015861;28;20060;-72
2022/01/01 06:18:56;;;;;;;29.80;12.75;;;;;;;;;;5015686;28;20485;-72
2022/01/01 06:21:22;;;;;;;28.92;13.32;;;;;;;;;;5032591;28;20109;-72
2022/01/01 06:23:48;;;;;;;26.17;11.65;;;;;;;;;;5033244;28;20091;-72
2022/01/01 06:26:15;;;;;;;31.40;12.43;;;;;;;;;;5015932;28;20018;-73
2022/01/01 06:28:44;;;;;;;26.98;12.93;;;;;;;;;;5015583;28;20045;-72
2022/01/01 06:31:10;;;;;;;29.80;11.73;;;;;;;;;;5033764;28;20101;-72
2022/01/01 06:33:36;;;;;;;28.75;11.38;;;;;;;;;;5015250;28;20061;-73
2022/01/01 06:36:02;;;;;;;27.70;10.73;;;;;;;;;;5015709;28;20029;-72
2022/01/01 06:38:28;;;;;;;25.85;11.90;;;;;;;;;;5033498;28;20026;-73
2022/01/01 06:40:54;;;;;;;26.75;10.82;;;;;;;;;;5033397;28;20473;-72
2022/01/01 06:43:23;;;;;;;24.80;10.73;;;;;;;;;;5014885;28;20052;-73
2022/01/01 06:45:49;;;;;;;24.98;10.57;;;;;;;;;;5015620;28;20075;-71
2022/01/01 06:48:15;;;;;;;23.92;11.18;;;;;;;;;;5015569;28;20033;-72
2022/01/01 06:50:41;;;;;;;27.55;10.90;;;;;;;;;;5033068;28;20477;-72
2022/01/01 06:53:07;;;;;;;27.08;11.10;;;;;;;;;;5014983;28;20021;-73
2022/01/01 06:55:33;;;;;;;25.02;10.95;;;;;;;;;;5031754;28;20025;-72
2022/01/01 06:57:59;;;;;;;21.80;10.20;;;;;;;;;;5032936;28;20046;-73
2022/01/01 07:00:25;;;;;;;27.15;11.40;;;;;;;;;;5015303;28;20025;-72
2022/01/01 07:02:51;;;;;;;22.95;10.18;;;;;;;;;;5014639;28;20025;-72
2022/01/01 07:05:17;;;;;;;22.30;8.93;;;;;;;;;;5013759;28;20160;-72
2022/01/01 07:07:43;;;;;;;25.83;10.23;;;;;;;;;;5015299;28;20075;-72
2022/01/01 07:10:10;;;;;;;23.05;9.88;;;;;;;;;;5033770;28;20116;-73
2022/01/01 07:12:37;;;;;;;29.30;10.65;;;;;;;;;;5014780;28;20103;-72
2022/01/01 07:15:04;;;;;;;22.42;9.77;;;;;;;;;;5015222;28;20504;-72
2022/01/01 07:17:30;;;;;;;28.38;11.23;;;;;;;;;;5014962;28;20492;-71
2022/01/01 07:19:56;;;;;;;22.23;9.55;;;;;;;;;;5032784;28;20555;-72
2022/01/01 07:22:22;;;;;;;24.98;11.07;;;;;;;;;;5014596;28;20036;-72
2022/01/01 07:24:49;;;;;;;22.95;10.90;;;;;;;;;;5015033;28;20022;-72
2022/01/01 07:27:16;;;;;;;25.48;10.32;;;;;;;;;;5015082;28;20691;-72
2022/01/01 07:29:42;;;;;;;27.50;10.13;;;;;;;;;;5013955;28;20086;-72
2022/01/01 07:32:08;;;;;;;24.63;10.52;;;;;;;;;;5015324;28;20021;-72
2022/01/01 07:34:35;;;;;;;25.05;10.27;;;;;;;;;;5018086;28;20433;-72
2022/01/01 07:37:01;;;;;;;26.55;10.75;;;;;;;;;;5028340;28;20029;-71
2022/01/01 07:39:27;;;;;;;23.55;10.27;;;;;;;;;;4999006;28;20052;-72
2022/01/01 07:41:53;;;;;;;24.10;11.05;;;;;;;;;;4998538;28;20018;-71
2022/01/01 07:44:19;;;;;;;28.92;11.05;;;;;;;;;;5033434;28;20444;-72
2022/01/01 07:46:45;;;;;;;24.88;11.15;;;;;;;;;;5034035;28;20018;-72
2022/01/01 07:49:11;;;;;;;27.77;10.88;;;;;;;;;;5018777;28;20029;-72
2022/01/01 07:51:37;;;;;;;24.35;10.88;;;;;;;;;;5017859;28;20033;-70
2022/01/01 07:54:03;;;;;;;29.33;11.68;;;;;;;;;;5036476;28;20370;-72
2022/01/01 07:56:28;;;;;;;23.90;10.75;;;;;;;;;;5036210;28;20171;-72
2022/01/01 07:58:54;;;;;;;24.20;10.52;;;;;;;;;;5016955;28;20367;-72
2022/01/01 08:01:20;;;;;;;28.15;11.73;;;;;;;;;;4998918;28;20029;-72
2022/01/01 08:03:49;;;;;;;25.08;10.10;;;;;;;;;;4997899;28;20030;-70
2022/01/01 08:06:15;;;;;;;27.33;10.50;;;;;;;;;;4998899;28;20108;-70
2022/01/01 08:08:41;;;;;;;24.73;11.02;;;;;;;;;;5015728;28;20123;-68
2022/01/01 08:11:07;;;;;;;27.83;10.73;;;;;;;;;;4997723;28;20030;-69
2022/01/01 08:13:35;;;;;;;27.50;11.55;;;;;;;;;;5015147;28;20029;-69
2022/01/01 08:16:02;;;;;;;24.60;10.70;;;;;;;;;;5017656;28;20029;-68
2022/01/01 08:18:29;;;;;;;26.45;10.98;;;;;;;;;;5017257;28;20037;-69
2022/01/01 08:20:56;;;;;;;21.92;10.45;;;;;;;;;;5017812;28;20022;-69
2022/01/01 08:23:23;;;;;;;24.52;10.15;;;;;;;;;;5016974;28;20025;-69
2022/01/01 08:25:49;;;;;;;25.77;11.80;;;;;;;;;;5035450;28;20070;-68
2022/01/01 08:28:15;;;;;;;29.35;11.95;;;;;;;;;;5017407;28;20481;-67
2022/01/01 08:30:41;;;;;;;26.58;10.30;;;;;;;;;;5017158;28;20033;-66
2022/01/01 08:33:07;;;;;;;23.48;10.50;;;;;;;;;;5034406;28;20032;-66
2022/01/01 08:35:33;;;;;;;27.52;11.43;;;;;;;;;;5017437;28;20026;-73
2022/01/01 08:38:00;;;;;;;24.27;10.93;;;;;;;;;;5017617;28;20093;-70
2022/01/01 08:40:27;;;;;;;23.85;10.00;;;;;;;;;;5017284;28;20444;-71
2022/01/01 08:42:53;;;;;;;27.73;10.65;;;;;;;;;;5033985;28;20021;-71
2022/01/01 08:45:19;;;;;;;24.50;10.07;;;;;;;;;;5034566;28;20029;-71
2022/01/01 08:47:46;;;;;;;28.25;10.35;;;;;;;;;;5034975;28;20058;-69
2022/01/01 08:50:12;;;;;;;21.80;9.88;;;;;;;;;;5035039;28;20040;-71
2022/01/01 08:52:38;;;;;;;20.75;9.32;;;;;;;;;;5016609;28;20489;-70
2022/01/01 08:55:04;;;;;;;25.48;9.90;;;;;;;;;;5017413;28;20032;-72
2022/01/01 08:57:32;;;;;;;23.75;10.45;;;;;;;;;;5017425;28;20366;-71
2022/01/01 08:59:58;;;;;;;23.77;9.93;;;;;;;;;;5017233;28;20041;-72
2022/01/01 09:02:24;;;;;;;21.88;8.48;;;;;;;;;;5016187;28;20028;-72
2022/01/01 09:04:50;;;;;;;21.83;8.63;;;;;;;;;;5035014;28;20030;-72
2022/01/01 09:07:17;;;;;;;24.95;9.57;;;;;;;;;;5017100;28;20025;-71
2022/01/01 09:09:43;;;;;;;22.73;9.63;;;;;;;;;;5034853;28;20541;-72
2022/01/01 09:12:09;;;;;;;21.02;9.23;;;;;;;;;;5016576;28;20040;-72
2022/01/01 09:14:35;;;;;;;22.60;9.73;;;;;;;;;;5034680;28;20097;-71
2022/01/01 09:17:01;;;;;;;24.95;9.80;;;;;;;;;;5034058;28;20108;-72
2022/01/01 09:19:27;;;;;;;23.33;8.85;;;;;;;;;;5016656;28;20067;-72
2022/01/01 09:21:53;;;;;;;20.73;8.38;;;;;;;;;;5015952;28;20028;-72
2022/01/01 09:24:19;;;;;;;25.77;10.32;;;;;;;;;;5034644;28;20025;-72
2022/01/01 09:26:45;;;;;;;23.52;9.00;;;;;;;;;;5034638;28;20105;-72
2022/01/01 09:29:11;;;;;;;23.77;9.40;;;;;;;;;;5016938;28;20039;-72
2022/01/01 09:31:38;;;;;;;21.63;8.38;;;;;;;;;;5033728;28;20029;-71
2022/01/01 09:34:05;;;;;;;21.73;9.27;;;;;;;;;;5034428;28;20100;-72
2022/01/01 09:36:34;;;;;;;24.00;9.38;;;;;;;;;;5016594;28;20408;-72
2022/01/01 09:39:00;;;;;;;21.75;8.18;;;;;;;;;;5016742;28;20029;-71
2022/01/01 09:41:26;;;;;;;19.63;8.20;;;;;;;;;;5034410;28;20032;-71
2022/01/01 09:43:57;;;;;;;23.35;9.10;;;;;;;;;;5015678;28;20055;-71
2022/01/01 09:46:23;;;;;;;19.55;8.40;;;;;;;;;;5016337;28;20037;-71
2022/01/01 09:48:52;;;;;;;20.40;8.20;;;;;;;;;;5033991;28;20037;-71
2022/01/01 09:51:19;;;;;;;22.73;7.85;;;;;;;;;;5034225;28;20069;-72
2022/01/01 09:53:45;;;;;;;22.10;7.97;;;;;;;;;;5015786;28;20029;-72
2022/01/01 09:56:11;;;;;;;20.40;9.30;;;;;;;;;;5016126;28;20037;-71
2022/01/01 09:58:38;;;;;;;18.10;7.22;;;;;;;;;;5034011;28;20030;-73
2022/01/01 10:01:06;;;;;;;19.42;8.07;;;;;;;;;;5033843;28;20480;-72
2022/01/01 10:03:45;;;;;;;19.73;7.72;;;;;;;;;;5015360;28;20022;-72
2022/01/01 10:06:15;;;;;;;20.77;8.10;;;;;;;;;;5016151;28;20036;-73
2022/01/01 10:08:42;;;;;;;26.73;10.30;;;;;;;;;;5033616;28;20108;-71
2022/01/01 10:11:09;;;;;;;17.65;6.90;;;;;;;;;;5033922;28;20032;-72
2022/01/01 10:13:37;;;;;;;18.83;7.65;;;;;;;;;;5015183;28;20033;-72
2022/01/01 10:16:07;;;;;;;18.08;7.38;;;;;;;;;;5015459;28;20029;-70
2022/01/01 10:18:36;;;;;;;21.92;7.80;;;12.90;99.90;;;;;;5015527;28;20417;-73
2022/01/01 10:21:07;;;;;;;20.63;7.78;;;14.10;99.90;;;;;;5033663;28;20018;-72
2022/01/01 10:23:34;;;;;;;18.88;8.35;;;14.20;99.90;;;;;;5015268;28;20060;-72
2022/01/01 10:29:10;;;;;;;19.55;7.32;;;14.10;99.90;;;;;;5029109;28;20079;-69
2022/01/01 10:31:37;;;;;;;20.13;8.68;;;14.20;99.90;;;;;;5013991;28;20437;-66
2022/01/01 10:34:10;;;;;;;18.00;6.72;;;14.10;99.90;;;;;;5022360;28;20045;-69
2022/01/01 10:36:36;;;;;;;27.95;8.73;;;14.00;99.90;;;;;;5012334;28;20159;-69
2022/01/01 10:39:13;;;;;;;19.83;6.82;;;14.00;99.90;;;;;;5021262;28;20153;-69
2022/01/01 10:41:48;;;;;;;19.42;7.38;;;14.10;99.90;;;;;;5020525;28;20030;-68
2022/01/01 10:44:15;;;;;;;20.05;7.40;;;14.10;99.90;;;;;;5026484;28;20514;-70
2022/01/01 10:46:41;;;;;;;19.67;7.60;;;14.10;99.90;;;;;;5013970;28;20045;-69
2022/01/01 10:49:34;;;;;;;19.33;7.63;;;14.10;99.90;;;;;;5012954;28;20026;-70
2022/01/01 10:52:12;;;;;;;20.92;8.65;;;14.10;99.90;;;;;;5011562;28;20029;-69
2022/01/01 10:54:38;;;;;;;20.50;7.60;;;14.00;99.90;;;;;;5032729;28;20021;-69
2022/01/01 10:57:08;;;;;;;19.27;6.72;;;14.00;99.90;;;;;;5032345;28;20076;-69
2022/01/01 10:59:38;;;;;;;18.73;7.20;;;14.00;99.90;;;;;;5014811;28;20124;-69
2022/01/01 11:02:06;;;;;;;20.35;7.43;;;14.00;99.90;;;;;;5031586;28;20021;-68
2022/01/01 11:04:33;;;;;;;18.88;7.15;;;14.00;99.90;;;;;;5014998;28;20049;-69
2022/01/01 11:06:59;;;;;;;24.38;7.15;;;14.00;99.90;;;;;;5031901;28;20037;-69
2022/01/01 11:09:26;;;;;;;19.17;7.50;;;14.10;99.90;;;;;;5014507;28;20050;-67
2022/01/01 11:11:57;;;;;;;19.45;6.88;;;14.20;99.90;;;;;;5031570;28;20083;-68
2022/01/01 11:14:24;;;;;;;17.98;6.57;;;14.20;99.90;;;;;;5014372;28;20104;-68
2022/01/01 11:16:51;;;;;;;18.42;8.35;;;14.20;99.90;;;;;;5031531;28;20079;-69
2022/01/01 11:19:17;;;;;;;18.85;7.22;;;14.30;99.90;;;;;;5014470;28;20021;-69
2022/01/01 11:21:44;;;;;;;18.27;7.15;;;14.30;99.90;;;;;;5013744;28;20021;-69
2022/01/01 11:24:11;;;;;;;16.95;7.15;;;14.30;99.90;;;;;;5024891;28;20109;-69
2022/01/01 11:26:37;;;;;;;19.50;7.40;;;14.30;99.90;;;;;;5010954;28;20515;-69
2022/01/01 11:29:02;;;;;;;19.75;6.60;;;14.40;99.90;;;;;;5006361;28;20033;-68
2022/01/01 11:31:29;;;;;;;21.95;7.53;;;14.40;99.90;;;;;;4992128;28;20128;-67
2022/01/01 11:34:00;;;;;;;21.08;7.88;;;14.50;99.90;;;;;;5016805;28;20410;-68
2022/01/01 11:36:29;;;;;;;16.30;7.00;;;14.40;99.90;;;;;;5013334;28;20026;-69
2022/01/01 11:38:55;;;;;;;15.23;6.57;;;14.60;99.90;;;;;;5009082;28;20509;-68
2022/01/01 11:41:21;;;;;;;18.15;6.45;;;14.60;99.90;;;;;;4993660;28;20073;-68
2022/01/01 11:43:47;;;;;;;19.75;7.05;;;14.60;99.90;;;;;;5010915;28;20030;-70
2022/01/01 11:46:29;;;;;;;17.40;6.72;;;14.70;99.90;;;;;;5011232;28;20025;-69
2022/01/01 11:49:00;;;;;;;16.38;6.50;;;14.80;99.90;;;;;;5011212;28;20477;-68
2022/01/01 11:51:49;;;;;;;15.35;6.47;;;14.80;99.90;;;;;;5028819;28;20075;-66
2022/01/01 11:54:14;;;;;;;17.42;6.53;;;14.80;99.90;;;;;;5030565;28;20033;-68
2022/01/01 11:56:46;;;;;;;17.13;6.97;;;14.80;99.90;;;;;;5025456;28;20030;-69
2022/01/01 11:59:36;;;;;;;19.88;8.50;;;14.80;99.90;;;;;;5029732;28;20030;-69
2022/01/01 12:02:20;;;;;;;16.30;6.65;;;14.90;99.90;;;;;;5012798;28;20025;-69
2022/01/01 12:04:54;;;;;;;17.17;6.82;;;15.00;99.90;;;;;;5014125;28;20060;-69
2022/01/01 12:07:19;;;;;;;14.93;6.35;;;14.90;99.90;;;;;;5031516;28;20504;-69
2022/01/01 12:13:00;;;;;;;19.80;6.65;;;15.20;99.90;;;;;;5031330;28;20029;-68
2022/01/01 12:15:36;;;;;;;21.55;7.22;;;15.30;99.90;;;;;;5013687;28;20105;-68
2022/01/01 12:18:09;;;;;;;18.65;7.03;;;15.30;99.90;;;;;;5015563;28;20026;-67
2022/01/01 12:20:47;;;;;;;18.45;6.90;;;15.10;99.90;;;;;;5016673;28;20030;-68
2022/01/01 12:23:17;;;;;;;16.25;6.28;;;15.10;99.90;;;;;;5013734;28;20441;-65
2022/01/01 12:25:47;;;;;;;17.60;6.30;;;15.10;99.90;;;;;;5021274;28;20072;-69
2022/01/01 12:28:18;;;;;;;13.80;5.88;;;15.10;99.90;;;;;;5032783;28;20022;-66
2022/01/01 12:30:54;;;;;;;14.82;6.53;;;15.10;99.90;;;;;;5032663;28;20059;-67
2022/01/01 12:33:42;;;;;;;18.17;6.40;;;15.10;99.90;;;;;;5031147;28;20017;-67
2022/01/01 12:36:18;;;;;;;15.93;5.78;;;15.20;99.90;;;;;;5034765;28;20025;-66
2022/01/01 12:38:56;;;;;;;15.02;5.95;;;15.10;99.90;;;;;;5035145;28;20030;-69
2022/01/01 12:41:32;;;;;;;;;;;15.30;99.90;;;;;;5036093;28;20013;-68
2022/01/01 12:44:03;;;;;;;17.65;5.97;;;15.50;99.90;;;;;;5017024;28;19944;-69
2022/01/01 12:46:32;;;;;;;17.23;7.18;;;15.40;99.90;;;;;;5035540;28;20036;-68
2022/01/01 12:49:01;;;;;;;21.10;6.57;;;15.50;99.90;;;;;;5035184;28;20076;-68
2022/01/01 12:51:27;;;;;;;;;;;15.60;99.90;;;;;;5017726;28;20029;-66
2022/01/01 12:53:58;;;;;;;22.98;7.45;;;15.40;99.90;;;;;;5034504;28;19905;-68
2022/01/01 12:56:24;;;;;;;15.23;6.22;;;15.50;99.90;;;;;;5017219;28;20022;-68
2022/01/01 12:58:56;;;;;;;18.00;6.65;;;15.50;99.90;;;;;;5033118;28;20516;-68
2022/01/01 13:01:27;;;;;;;17.92;6.95;;;15.50;99.90;;;;;;5014693;28;20037;-69
2022/01/01 13:03:59;;;;;;;20.20;6.35;;;15.50;99.90;;;;;;4996498;28;20485;-68
2022/01/01 13:06:32;;;;;;;18.25;6.75;;;15.40;99.90;;;;;;4997352;28;20030;-68
2022/01/01 13:11:26;;;;;;;16.73;6.70;;;15.30;99.90;;;;;;5031356;28;20076;-70
2022/01/01 13:13:52;;;;;;;20.88;6.88;;;15.10;99.90;;;;;;5015316;28;20025;-72
2022/01/01 13:16:17;;;;;;;19.42;7.18;;;15.10;99.90;;;;;;5015783;28;20040;-72
2022/01/01 13:18:43;;;;;;;19.10;7.30;;;15.00;99.90;;;;;;5015726;28;20018;-71
2022/01/01 13:21:09;;;;;;;16.10;6.72;;;14.90;99.90;;;;;;5033609;28;20025;-72
2022/01/01 13:23:38;;;;;;;16.33;6.40;;;14.90;99.90;;;;;;5051261;28;20097;-73
2022/01/01 13:26:04;;;;;;;17.10;5.90;;;14.90;99.90;;;;;;5035233;28;20025;-71
2022/01/01 13:28:35;;;;;;;17.65;6.25;;;14.90;99.90;;;;;;5035154;28;20035;-70
2022/01/01 13:31:07;;;;;;;17.65;6.75;;;14.90;99.90;;;;;;5033197;28;20029;-72
2022/01/01 13:33:35;;;;;;;15.65;6.38;;;14.90;99.90;;;;;;5052502;28;20048;-72
2022/01/01 13:36:03;;;;;;;17.10;7.20;;;14.90;99.90;;;;;;5035065;28;20036;-72
2022/01/01 13:38:30;;;;;;;16.73;6.60;;;14.90;99.90;;;;;;5035462;28;20079;-70
2022/01/01 13:41:00;;;;;;;18.98;7.00;;;14.90;99.90;;;;;;5034290;28;20028;-70
2022/01/01 13:43:32;;;;;;;16.73;6.57;;;14.80;99.90;;;;;;5034645;28;20017;-69
2022/01/01 13:46:06;;;;;;;17.83;6.38;;;14.90;99.90;;;;;;5053155;28;20086;-72
2022/01/01 13:48:44;;;;;;;18.73;6.90;;;14.90;99.90;;;;;;5054733;28;20020;-71
2022/01/01 13:51:11;;;;;;;15.90;7.22;;;14.80;99.90;;;;;;5055911;28;20503;-71
2022/01/01 13:53:41;;;;;;;16.38;6.20;;;14.80;99.90;;;;;;5034385;28;20037;-71
2022/01/01 13:56:13;;;;;;;17.50;6.70;;;14.80;99.90;;;;;;5034522;28;20052;-71
2022/01/01 13:58:44;;;;;;;16.65;6.70;;;14.90;99.90;;;;;;5034830;28;20025;-71
2022/01/01 14:01:15;;;;;;;16.20;6.45;;;14.80;99.90;;;;;;5052721;28;20495;-70
2022/01/01 14:03:42;;;;;;;15.93;6.35;;;14.80;99.90;;;;;;5034495;28;20032;-71
2022/01/01 14:06:11;;;;;;;18.83;6.10;;;14.70;99.90;;;;;;5052748;28;20465;-71